Overview Statistics Trail Chart Weather Telemetry Raw packets
 

This is the latest recevied weather packets stored in our database for station/object SQ4IXR-4. If no packets are shown the sender has not sent any weather packets the latest 10 day(s).

<< 21 22 23 24 25 26 27 >>
Time Temp. Humidity Pressure Rain* Wind** Luminosity Snow
1788195167 22.22° C 73% 1016.6 hPa - - - -
1788194343 22.78° C 68% 1016.8 hPa - - - -
1788193520 22.78° C 68% 1016.8 hPa - - - -
1788192697 23.33° C 66% 1016.7 hPa - - - -
1788191875 23.89° C 65% 1016.7 hPa - - - -
1788191055 23.89° C 62% 1016.6 hPa - - - -
1788190231 25.56° C 54% 1016.4 hPa - - - -
1788189409 26.67° C 49% 1016 hPa - - - -
1788188588 26.67° C 45% 1015.9 hPa - - - -
1788187765 27.78° C 40% 1015.8 hPa - - - -
1788186944 28.89° C 38% 1015.7 hPa - - - -
1788186121 30° C 36% 1015.7 hPa - - - -
1788185300 30.56° C 34% 1015.7 hPa - - - -
1788184477 30.56° C 34% 1015.7 hPa - - - -
1788183654 31.11° C 32% 1015.8 hPa - - - -
1788182830 31.67° C 33% 1015.8 hPa - - - -
1788182011 32.22° C 31% 1015.8 hPa - - - -
1788181188 33.33° C 29% 1015.9 hPa - - - -
1788180364 33.89° C 30% 1015.8 hPa - - - -
1788179552 36.67° C 26% 1015.8 hPa - - - -
1788178717 37.78° C 26% 1015.8 hPa - - - -
1788177892 31.11° C 34% 1016.4 hPa - - - -
1788177064 31.67° C 32% 1016.5 hPa - - - -
1788176246 33.33° C 29% 1016.2 hPa - - - -
1788175418 34.44° C 28% 1016.2 hPa - - - -

* Rain since midnight (hover to see other rain measurements)
** Current wind speed in m/s (hover to see current wind gust speed)